createdAt,value
2023-04-03T00:01:43.125Z,9.20
2023-04-03T00:04:27.072Z,9.15
2023-04-03T00:07:11.299Z,9.12
2023-04-03T00:09:56.590Z,9.25
2023-04-03T00:12:40.342Z,9.17
2023-04-03T00:15:24.046Z,9.15
2023-04-03T00:18:08.753Z,9.09
2023-04-03T00:20:52.828Z,8.81
2023-04-03T00:23:36.728Z,9.18
2023-04-03T00:26:21.911Z,9.18
2023-04-03T00:29:05.627Z,8.96
2023-04-03T00:31:50.582Z,9.43
2023-04-03T00:34:34.329Z,9.18
2023-04-03T00:37:18.066Z,8.97
2023-04-03T00:40:01.840Z,8.86
2023-04-03T00:42:50.485Z,8.92
2023-04-03T00:45:38.785Z,8.88
2023-04-03T00:48:27.153Z,8.85
2023-04-03T00:51:15.153Z,9.11
2023-04-03T00:54:03.310Z,8.93
2023-04-03T00:56:47.719Z,9.12
2023-04-03T00:59:36.688Z,9.01
2023-04-03T01:02:20.400Z,8.85
2023-04-03T01:05:04.510Z,8.95
2023-04-03T01:07:49.706Z,8.97
2023-04-03T01:10:33.374Z,9.04
2023-04-03T01:13:24.586Z,8.85
2023-04-03T01:16:10.634Z,8.97
2023-04-03T01:18:54.540Z,9.01
2023-04-03T01:22:05.055Z,9.23
2023-04-03T01:24:48.901Z,8.91
2023-04-03T01:27:32.825Z,8.77
2023-04-03T01:30:19.883Z,8.87
2023-04-03T01:33:05.259Z,8.89
2023-04-03T01:35:49.909Z,8.88
2023-04-03T01:38:34.038Z,8.96
2023-04-03T01:41:18.082Z,8.94
2023-04-03T01:44:03.486Z,8.89
2023-04-03T01:46:47.511Z,8.94
2023-04-03T01:49:33.018Z,8.85
2023-04-03T01:52:16.928Z,8.82
2023-04-03T01:55:00.878Z,8.82
2023-04-03T01:57:44.787Z,8.76
2023-04-03T02:00:28.772Z,8.83
2023-04-03T02:03:12.616Z,8.76
2023-04-03T02:05:58.031Z,8.59
2023-04-03T02:08:42.728Z,8.72
2023-04-03T02:11:26.600Z,8.70
2023-04-03T02:14:10.703Z,8.67
2023-04-03T02:17:14.486Z,8.61
2023-04-03T02:19:58.425Z,8.44
2023-04-03T02:22:43.567Z,8.51
2023-04-03T02:25:27.466Z,8.48
2023-04-03T02:28:11.338Z,8.48
2023-04-03T02:30:55.086Z,8.23
2023-04-03T02:33:39.195Z,8.34
2023-04-03T02:36:25.876Z,8.05
2023-04-03T02:39:15.867Z,8.05
2023-04-03T02:42:00.089Z,7.92
2023-04-03T02:44:45.624Z,8.22
2023-04-03T02:47:29.849Z,8.80
2023-04-03T02:50:13.838Z,9.52
2023-04-03T02:52:57.804Z,9.66
2023-04-03T02:55:43.317Z,9.47
2023-04-03T02:58:27.382Z,9.54
2023-04-03T03:01:14.342Z,9.53
2023-04-03T03:03:58.173Z,9.44
2023-04-03T03:06:43.601Z,9.38
2023-04-03T03:09:28.942Z,9.44
2023-04-03T03:12:14.012Z,9.27
2023-04-03T03:14:57.778Z,9.26
2023-04-03T03:17:41.650Z,9.42
2023-04-03T03:20:25.746Z,9.49
2023-04-03T03:23:09.613Z,9.49
2023-04-03T03:25:57.614Z,9.47
2023-04-03T03:28:43.000Z,9.71
2023-04-03T03:31:29.116Z,9.75
2023-04-03T03:34:13.222Z,9.48
2023-04-03T03:36:57.261Z,9.36
2023-04-03T03:39:41.323Z,9.33
2023-04-03T03:42:25.267Z,9.55
2023-04-03T03:45:12.374Z,9.37
2023-04-03T03:47:56.414Z,9.15
2023-04-03T03:50:40.878Z,9.34
2023-04-03T03:53:24.926Z,9.52
2023-04-03T03:56:11.608Z,9.25
2023-04-03T03:58:57.648Z,9.42
2023-04-03T04:01:42.970Z,9.48
2023-04-03T04:04:26.921Z,9.48
2023-04-03T04:07:10.716Z,9.36
2023-04-03T04:09:55.007Z,9.29
2023-04-03T04:12:38.866Z,9.44
2023-04-03T04:15:24.020Z,9.25
2023-04-03T04:18:09.606Z,9.34
2023-04-03T04:20:53.663Z,9.47
2023-04-03T04:23:38.607Z,9.62
2023-04-03T04:26:23.048Z,9.69
2023-04-03T04:29:07.148Z,9.69
2023-04-03T04:31:53.158Z,9.81
2023-04-03T04:34:40.013Z,9.78
2023-04-03T04:37:24.056Z,9.99
2023-04-03T04:40:09.276Z,9.96
2023-04-03T04:42:53.292Z,9.75
2023-04-03T04:45:38.018Z,9.83
2023-04-03T04:48:22.273Z,9.41
2023-04-03T04:51:07.612Z,9.94
2023-04-03T04:53:56.061Z,10.10
2023-04-03T04:56:41.019Z,10.19
2023-04-03T04:59:24.973Z,10.13
2023-04-03T05:02:11.131Z,10.10
2023-04-03T05:04:57.298Z,10.28
2023-04-03T05:07:46.317Z,10.38
2023-04-03T05:10:30.228Z,10.22
2023-04-03T05:13:14.231Z,10.36
2023-04-03T05:15:58.868Z,10.44
2023-04-03T05:18:43.280Z,10.36
2023-04-03T05:21:34.159Z,10.51
2023-04-03T05:24:24.138Z,10.53
2023-04-03T05:27:07.964Z,10.45
2023-04-03T05:29:56.364Z,10.79
2023-04-03T05:32:41.153Z,11.06
2023-04-03T05:35:32.615Z,10.96
2023-04-03T05:38:19.062Z,11.04
2023-04-03T05:41:05.141Z,11.34
2023-04-03T05:43:49.227Z,11.51
2023-04-03T05:46:34.110Z,11.66
2023-04-03T05:49:21.379Z,11.71
2023-04-03T05:52:05.621Z,11.70
2023-04-03T05:54:50.703Z,11.83
2023-04-03T05:57:42.028Z,11.99
2023-04-03T06:00:26.418Z,12.47
2023-04-03T06:03:18.058Z,12.35
2023-04-03T06:06:05.476Z,12.44
2023-04-03T06:08:49.369Z,12.76
2023-04-03T06:11:33.138Z,12.62
2023-04-03T06:14:18.417Z,12.76
2023-04-03T06:17:02.865Z,12.97
2023-04-03T06:19:46.954Z,12.78
2023-04-03T06:22:31.927Z,12.76
2023-04-03T06:25:15.733Z,12.97
2023-04-03T06:27:59.714Z,12.88
2023-04-03T06:30:44.847Z,12.99
2023-04-03T06:33:28.574Z,13.07
2023-04-03T06:36:13.834Z,12.90
2023-04-03T06:38:58.006Z,12.75
2023-04-03T06:41:41.649Z,12.76
2023-04-03T06:44:25.619Z,12.80
2023-04-03T06:47:13.852Z,12.91
2023-04-03T06:49:57.632Z,12.86
2023-04-03T06:52:41.547Z,12.99
2023-04-03T06:55:25.362Z,13.13
2023-04-03T06:58:09.138Z,13.73
2023-04-03T07:00:52.925Z,13.66
2023-04-03T07:03:38.225Z,14.03
2023-04-03T07:06:22.125Z,14.11
2023-04-03T07:09:05.929Z,13.79
2023-04-03T07:11:49.678Z,14.62
2023-04-03T07:14:33.478Z,14.58
2023-04-03T07:17:17.410Z,14.53
2023-04-03T07:20:02.629Z,15.30
2023-04-03T07:22:49.006Z,15.63
2023-04-03T07:25:34.847Z,15.26
2023-04-03T07:28:20.388Z,15.26
2023-04-03T07:31:07.149Z,15.26
2023-04-03T07:33:51.089Z,15.15
2023-04-03T07:36:37.212Z,15.25
2023-04-03T07:39:21.338Z,15.14
2023-04-03T07:42:05.114Z,15.84
2023-04-03T07:44:49.031Z,15.52
2023-04-03T07:47:33.456Z,15.63
2023-04-03T07:50:17.723Z,15.94
2023-04-03T07:53:02.880Z,15.91
2023-04-03T07:55:48.596Z,16.05
2023-04-03T07:58:32.669Z,16.57
2023-04-03T08:01:16.500Z,15.83
2023-04-03T08:04:00.537Z,16.48
2023-04-03T08:06:46.857Z,17.03
2023-04-03T08:09:32.557Z,17.13
2023-04-03T08:12:16.521Z,17.26
2023-04-03T08:15:02.633Z,17.91
2023-04-03T08:17:47.103Z,18.35
2023-04-03T08:20:31.314Z,17.33
2023-04-03T08:23:17.611Z,17.36
2023-04-03T08:26:09.516Z,17.32
2023-04-03T08:28:53.474Z,18.20
2023-04-03T08:31:37.795Z,18.72
2023-04-03T08:34:22.358Z,19.29
2023-04-03T08:37:06.747Z,19.33
2023-04-03T08:39:51.189Z,19.30
2023-04-03T08:42:50.246Z,18.88
2023-04-03T08:45:45.299Z,18.86
2023-04-03T08:48:33.433Z,19.41
2023-04-03T08:51:19.713Z,19.39
2023-04-03T08:54:10.208Z,18.75
2023-04-03T08:56:55.186Z,19.31
2023-04-03T08:59:41.825Z,19.61
2023-04-03T09:02:35.269Z,19.64
2023-04-03T09:05:23.007Z,19.24
2023-04-03T09:08:15.036Z,19.36
2023-04-03T09:11:12.228Z,19.20
2023-04-03T09:14:02.218Z,19.38
2023-04-03T09:16:55.102Z,19.28
2023-04-03T09:19:47.140Z,19.59
2023-04-03T09:22:41.778Z,19.74
2023-04-03T09:25:32.190Z,19.45
2023-04-03T09:28:16.980Z,19.50
2023-04-03T09:31:02.589Z,19.31
2023-04-03T09:33:48.208Z,19.13
2023-04-03T09:36:42.657Z,19.85
2023-04-03T09:39:29.309Z,19.48
2023-04-03T09:42:20.665Z,19.77
2023-04-03T09:45:07.823Z,19.71
2023-04-03T09:48:08.323Z,19.63
2023-04-03T09:51:02.820Z,19.57
2023-04-03T09:53:47.191Z,19.82
2023-04-03T09:56:32.706Z,19.65
2023-04-03T09:59:18.024Z,19.31
2023-04-03T10:02:05.567Z,19.48
2023-04-03T10:04:58.714Z,18.86
2023-04-03T10:07:58.299Z,19.19
2023-04-03T10:10:50.291Z,19.08
2023-04-03T10:13:45.213Z,19.28
2023-04-03T10:16:40.441Z,18.99
2023-04-03T10:19:36.993Z,19.53
2023-04-03T10:22:33.535Z,18.93
2023-04-03T10:25:26.469Z,18.48
2023-04-03T10:28:17.331Z,18.97
2023-04-03T10:31:12.726Z,19.22
2023-04-03T10:34:07.368Z,19.38
2023-04-03T10:36:59.966Z,19.30
2023-04-03T10:39:54.135Z,19.58
2023-04-03T10:42:48.556Z,19.59
2023-04-03T10:45:48.683Z,19.97
2023-04-03T10:48:44.717Z,19.82
2023-04-03T10:51:35.759Z,20.18
2023-04-03T10:54:27.213Z,19.73
2023-04-03T10:57:14.064Z,19.88
2023-04-03T11:00:03.757Z,20.25
2023-04-03T11:02:53.673Z,19.75
2023-04-03T11:05:43.415Z,20.50
2023-04-03T11:08:34.936Z,20.27
2023-04-03T11:11:22.789Z,20.49
2023-04-03T11:14:17.299Z,20.01
2023-04-03T11:17:19.015Z,18.77
2023-04-03T11:20:09.051Z,18.77
2023-04-03T11:22:59.953Z,19.03
2023-04-03T11:25:45.895Z,19.60
2023-04-03T11:28:30.052Z,19.41
2023-04-03T11:31:44.461Z,18.98
2023-04-03T11:34:39.465Z,19.18
2023-04-03T11:37:31.030Z,18.20
2023-04-03T11:40:24.899Z,17.33
2023-04-03T11:43:23.157Z,18.15
2023-04-03T11:46:08.833Z,18.53
2023-04-03T11:49:00.116Z,18.61
2023-04-03T11:51:54.210Z,18.75
2023-04-03T11:54:54.833Z,18.89
2023-04-03T11:57:53.389Z,17.99
2023-04-03T12:00:57.501Z,18.84
2023-04-03T12:04:01.249Z,18.49
2023-04-03T12:07:06.035Z,18.77
2023-04-03T12:10:08.744Z,18.48
2023-04-03T12:13:04.489Z,18.56
2023-04-03T12:16:02.542Z,18.67
2023-04-03T12:19:03.365Z,19.17
2023-04-03T12:22:27.749Z,17.84
2023-04-03T12:25:56.039Z,18.50
2023-04-03T12:28:49.586Z,17.69
2023-04-03T12:31:49.731Z,18.03
2023-04-03T12:34:54.668Z,18.04
2023-04-03T12:38:03.057Z,18.13
2023-04-03T12:40:55.969Z,17.81
2023-04-03T12:44:05.196Z,18.46
2023-04-03T12:46:57.128Z,18.17
2023-04-03T12:49:54.203Z,17.81
2023-04-03T12:52:53.550Z,16.88
2023-04-03T12:55:44.346Z,17.11
2023-04-03T12:58:41.602Z,17.60
2023-04-03T13:01:32.356Z,17.12
2023-04-03T13:04:21.979Z,16.79
2023-04-03T13:07:25.992Z,16.72
2023-04-03T13:10:22.411Z,17.06
2023-04-03T13:13:16.100Z,17.86
2023-04-03T13:16:13.659Z,17.37
2023-04-03T13:19:05.552Z,16.65
2023-04-03T13:21:58.562Z,16.97
2023-04-03T13:24:49.030Z,16.32
2023-04-03T13:27:35.991Z,16.63
2023-04-03T13:30:29.260Z,15.85
2023-04-03T13:33:24.259Z,16.65
2023-04-03T13:36:18.153Z,16.42
2023-04-03T13:39:05.476Z,16.07
2023-04-03T13:41:51.230Z,16.02
2023-04-03T13:44:37.948Z,16.70
2023-04-03T13:47:26.396Z,16.91
2023-04-03T13:50:18.457Z,16.17
2023-04-03T13:53:11.277Z,16.36
2023-04-03T13:56:02.789Z,15.98
2023-04-03T13:58:58.101Z,16.15
2023-04-03T14:01:49.527Z,16.27
2023-04-03T14:04:48.485Z,15.89
2023-04-03T14:07:33.668Z,15.44
2023-04-03T14:10:17.929Z,15.61
2023-04-03T14:13:05.353Z,15.21
2023-04-03T14:15:52.381Z,15.41
2023-04-03T14:18:38.034Z,15.56
2023-04-03T14:21:24.454Z,14.32
2023-04-03T14:24:08.980Z,14.17
2023-04-03T14:26:55.156Z,14.32
2023-04-03T14:29:39.110Z,14.10
2023-04-03T14:32:25.010Z,14.17
2023-04-03T14:35:09.659Z,14.48
2023-04-03T14:37:56.402Z,13.98
2023-04-03T14:40:41.358Z,13.84
2023-04-03T14:43:26.288Z,14.38
2023-04-03T14:46:15.894Z,14.17
2023-04-03T14:49:00.158Z,13.97
2023-04-03T14:51:44.652Z,13.95
2023-04-03T14:54:30.597Z,13.94
2023-04-03T14:57:16.965Z,13.92
2023-04-03T15:00:01.976Z,14.29
2023-04-03T15:02:48.890Z,13.99
2023-04-03T15:05:33.037Z,13.69
2023-04-03T15:08:23.665Z,13.98
2023-04-03T15:11:09.170Z,13.11
2023-04-03T15:13:53.389Z,12.31
2023-04-03T15:16:37.470Z,12.12
2023-04-03T15:19:21.649Z,12.14
2023-04-03T15:22:05.443Z,12.18
2023-04-03T15:24:49.738Z,11.91
2023-04-03T15:27:35.168Z,11.60
2023-04-03T15:30:21.280Z,11.72
2023-04-03T15:33:05.251Z,11.54
2023-04-03T15:35:49.232Z,11.37
2023-04-03T15:38:33.465Z,11.44
2023-04-03T15:41:17.603Z,11.37
2023-04-03T15:44:02.928Z,11.38
2023-04-03T15:46:47.755Z,11.24
2023-04-03T15:49:32.145Z,11.36
2023-04-03T15:52:17.794Z,11.45
2023-04-03T15:55:01.787Z,11.48
2023-04-03T15:57:46.489Z,11.60
2023-04-03T16:00:33.045Z,11.68
2023-04-03T16:03:20.636Z,11.43
2023-04-03T16:06:04.696Z,11.35
2023-04-03T16:08:50.402Z,11.25
2023-04-03T16:11:36.105Z,11.03
2023-04-03T16:14:19.873Z,10.83
2023-04-03T16:17:05.210Z,10.64
2023-04-03T16:19:49.056Z,10.68
2023-04-03T16:22:33.081Z,10.58
2023-04-03T16:25:17.036Z,10.61
2023-04-03T16:28:01.166Z,10.58
2023-04-03T16:30:47.156Z,10.25
2023-04-03T16:33:33.355Z,10.56
2023-04-03T16:36:17.575Z,10.36
2023-04-03T16:39:01.691Z,10.48
2023-04-03T16:41:46.553Z,10.57
2023-04-03T16:44:30.956Z,11.13
2023-04-03T16:47:16.435Z,11.22
2023-04-03T16:50:02.233Z,11.92
2023-04-03T16:52:47.932Z,12.22
2023-04-03T16:55:32.836Z,12.46
2023-04-03T16:58:17.387Z,11.92
2023-04-03T17:01:10.780Z,11.85
2023-04-03T17:03:55.696Z,12.35
2023-04-03T17:06:42.251Z,12.05
2023-04-03T17:09:26.666Z,12.08
2023-04-03T17:12:11.115Z,11.74
2023-04-03T17:14:55.883Z,11.74
2023-04-03T17:17:40.208Z,11.15
2023-04-03T17:20:24.910Z,11.06
2023-04-03T17:23:10.518Z,10.67
2023-04-03T17:25:55.552Z,10.52
2023-04-03T17:28:41.141Z,10.52
2023-04-03T17:31:25.772Z,10.50
2023-04-03T17:34:12.760Z,10.31
2023-04-03T17:36:57.767Z,10.35
2023-04-03T17:39:44.018Z,10.07
2023-04-03T17:42:28.956Z,10.16
2023-04-03T17:45:13.972Z,9.78
2023-04-03T17:47:58.738Z,10.07
2023-04-03T17:50:44.139Z,10.14
2023-04-03T17:53:29.598Z,10.23
2023-04-03T17:56:18.192Z,10.15
2023-04-03T17:59:03.071Z,10.22
2023-04-03T18:01:48.528Z,10.24
2023-04-03T18:04:33.380Z,9.95
2023-04-03T18:07:17.783Z,10.18
2023-04-03T18:10:05.765Z,10.17
2023-04-03T18:12:53.851Z,10.00
2023-04-03T18:15:44.480Z,9.86
2023-04-03T18:18:29.807Z,9.52
2023-04-03T18:21:16.348Z,9.62
2023-04-03T18:24:01.452Z,9.70
2023-04-03T18:26:50.111Z,9.78
2023-04-03T18:29:40.152Z,9.60
2023-04-03T18:32:26.124Z,9.68
2023-04-03T18:35:12.460Z,9.47
2023-04-03T18:37:57.992Z,9.23
2023-04-03T18:40:45.478Z,9.17
2023-04-03T18:43:30.907Z,9.08
2023-04-03T18:46:17.712Z,8.99
2023-04-03T18:49:03.099Z,9.18
2023-04-03T18:51:48.940Z,9.27
2023-04-03T18:54:34.592Z,9.31
2023-04-03T18:57:20.500Z,9.24
2023-04-03T19:00:07.330Z,9.39
2023-04-03T19:02:54.179Z,9.43
2023-04-03T19:05:40.998Z,9.38
2023-04-03T19:08:26.839Z,9.31
2023-04-03T19:11:12.025Z,9.44
2023-04-03T19:14:04.318Z,9.36
2023-04-03T19:16:59.670Z,9.25
2023-04-03T19:19:46.412Z,9.25
2023-04-03T19:22:32.419Z,9.22
2023-04-03T19:25:17.696Z,9.23
2023-04-03T19:28:02.758Z,9.28
2023-04-03T19:30:49.102Z,9.28
2023-04-03T19:33:34.472Z,9.76
2023-04-03T19:36:21.304Z,9.16
2023-04-03T19:39:06.353Z,9.31
2023-04-03T19:41:51.215Z,9.16
2023-04-03T19:44:39.197Z,8.97
2023-04-03T19:47:23.910Z,8.92
2023-04-03T19:50:09.115Z,9.02
2023-04-03T19:52:54.789Z,8.97
2023-04-03T19:55:39.099Z,9.00
2023-04-03T19:58:23.442Z,9.06
2023-04-03T20:01:07.451Z,9.17
2023-04-03T20:03:51.933Z,9.28
2023-04-03T20:06:36.907Z,9.23
2023-04-03T20:09:22.695Z,9.32
2023-04-03T20:12:09.809Z,9.16
2023-04-03T20:14:53.951Z,9.14
2023-04-03T20:17:38.668Z,9.12
2023-04-03T20:20:23.229Z,9.14
2023-04-03T20:23:08.357Z,9.11
2023-04-03T20:26:06.556Z,8.86
2023-04-03T20:28:55.926Z,8.96
2023-04-03T20:31:40.755Z,8.99
2023-04-03T20:34:25.091Z,8.97
2023-04-03T20:37:09.253Z,8.93
2023-04-03T20:39:53.219Z,9.05
2023-04-03T20:42:38.907Z,8.77
2023-04-03T20:45:23.212Z,8.97
2023-04-03T20:48:07.420Z,8.98
2023-04-03T20:50:52.121Z,9.16
2023-04-03T20:53:36.170Z,8.94
2023-04-03T20:56:20.191Z,8.92
2023-04-03T20:59:06.062Z,8.96
2023-04-03T21:01:50.141Z,8.92
2023-04-03T21:04:39.848Z,9.00
2023-04-03T21:08:02.301Z,8.87
2023-04-03T21:11:23.949Z,8.99
2023-04-03T21:14:46.054Z,8.96
2023-04-03T21:17:29.538Z,8.86
2023-04-03T21:20:15.122Z,8.85
2023-04-03T21:22:59.005Z,8.83
2023-04-03T21:25:43.022Z,8.91
2023-04-03T21:28:27.500Z,9.05
2023-04-03T21:31:11.981Z,8.84
2023-04-03T21:33:55.752Z,8.97
2023-04-03T21:36:42.976Z,8.95
2023-04-03T21:39:27.230Z,8.86
2023-04-03T21:42:11.107Z,8.88
2023-04-03T21:44:55.056Z,8.89
2023-04-03T21:47:40.199Z,8.60
2023-04-03T21:50:24.120Z,8.93
2023-04-03T21:53:09.410Z,8.81
2023-04-03T21:55:57.377Z,8.78
2023-04-03T21:58:41.583Z,8.83
2023-04-03T22:01:25.706Z,8.80
2023-04-03T22:04:09.876Z,8.86
2023-04-03T22:06:53.755Z,8.71
2023-04-03T22:09:38.940Z,8.54
2023-04-03T22:12:23.175Z,8.83
2023-04-03T22:15:09.058Z,8.71
2023-04-03T22:17:52.978Z,8.83
2023-04-03T22:20:37.415Z,8.80
2023-04-03T22:23:21.183Z,8.74
2023-04-03T22:26:08.758Z,8.60
2023-04-03T22:28:53.044Z,8.55
2023-04-03T22:31:38.117Z,8.72
2023-04-03T22:34:24.649Z,8.49
2023-04-03T22:37:08.877Z,8.44
2023-04-03T22:39:54.002Z,8.55
2023-04-03T22:42:39.694Z,8.60
2023-04-03T22:45:23.854Z,8.27
2023-04-03T22:48:08.349Z,8.43
2023-04-03T22:50:52.859Z,8.47
2023-04-03T22:53:37.267Z,8.59
2023-04-03T22:56:23.924Z,8.36
2023-04-03T22:59:11.301Z,8.43
2023-04-03T23:01:55.635Z,8.61
2023-04-03T23:04:39.883Z,8.47
2023-04-03T23:07:24.288Z,8.45
2023-04-03T23:10:09.132Z,8.47
2023-04-03T23:12:53.108Z,8.35
2023-04-03T23:15:38.833Z,8.57
2023-04-03T23:18:23.064Z,8.65
2023-04-03T23:21:08.090Z,8.76
2023-04-03T23:23:52.101Z,8.69
2023-04-03T23:26:36.092Z,8.71
2023-04-03T23:29:19.948Z,8.80
2023-04-03T23:32:05.776Z,8.84
2023-04-03T23:34:49.623Z,8.67
2023-04-03T23:37:33.803Z,8.83
2023-04-03T23:40:17.975Z,8.70
2023-04-03T23:43:02.096Z,8.79
2023-04-03T23:45:46.928Z,8.53
2023-04-03T23:48:32.368Z,8.50
2023-04-03T23:51:16.325Z,8.52
2023-04-03T23:54:00.140Z,8.64
2023-04-03T23:56:44.085Z,8.66
2023-04-03T23:59:28.280Z,8.64
